Terminal Aerodrome Forecast
Issued by NWS

Home | Current Version | Previous Version | Text Only | Print | Product List | Glossary On
Versions: 1 2 3 4 5 6 7 8 9 10 11 12 13 14
000
FTUS42 KTBW 020000 AAA
TAFRSW
TAF AMD
KRSW 020034Z 0201/0224 09010KT P6SM VCTS BKN050CB BKN100
     FM020200 VRB03KT P6SM FEW030 SCT250
     FM021400 06005KT P6SM SCT035 BKN250
     FM021800 34007KT P6SM VCTS SCT040CB BKN080 BKN250=

USA.gov is the U.S. government's official web portal to all federal, state and local government web resources and services.